createdAt,value
2018-12-12T00:00:09.022Z,3.10
2018-12-12T00:01:08.934Z,3.10
2018-12-12T00:02:08.909Z,3.40
2018-12-12T00:04:26.346Z,3.00
2018-12-12T00:05:26.318Z,3.40
2018-12-12T00:06:26.306Z,3.20
2018-12-12T00:07:36.229Z,3.40
2018-12-12T00:08:26.318Z,3.30
2018-12-12T00:09:26.373Z,3.00
2018-12-12T00:10:26.341Z,2.80
2018-12-12T00:11:26.267Z,3.20
2018-12-12T00:12:26.515Z,3.00
2018-12-12T00:13:26.440Z,2.90
2018-12-12T00:14:26.357Z,3.00
2018-12-12T00:15:26.278Z,2.90
2018-12-12T00:16:26.259Z,2.80
2018-12-12T00:17:26.241Z,3.00
2018-12-12T00:18:26.237Z,2.80
2018-12-12T00:19:26.320Z,3.20
2018-12-12T00:20:26.460Z,2.90
2018-12-12T00:21:35.293Z,3.30
2018-12-12T00:22:35.310Z,3.20
2018-12-12T00:25:06.264Z,2.90
2018-12-12T00:26:06.207Z,2.90
2018-12-12T00:27:06.255Z,3.40
2018-12-12T00:28:06.189Z,3.30
2018-12-12T00:29:15.589Z,3.20
2018-12-12T00:30:06.207Z,3.20
2018-12-12T00:31:06.169Z,3.10
2018-12-12T00:32:06.195Z,3.40
2018-12-12T00:33:06.109Z,3.30
2018-12-12T00:34:06.133Z,4.30
2018-12-12T00:35:06.102Z,3.30
2018-12-12T00:36:06.125Z,3.40
2018-12-12T00:37:15.640Z,3.40
2018-12-12T00:38:06.051Z,3.40
2018-12-12T00:39:06.055Z,3.70
2018-12-12T00:40:06.043Z,3.30
2018-12-12T00:41:06.048Z,3.50
2018-12-12T00:42:06.059Z,3.50
2018-12-12T00:43:06.008Z,3.50
2018-12-12T00:44:05.991Z,3.60
2018-12-12T00:45:15.151Z,3.60
2018-12-12T00:46:05.990Z,3.70
2018-12-12T00:47:05.999Z,3.80
2018-12-12T00:48:05.984Z,3.70
2018-12-12T00:49:05.942Z,3.90
2018-12-12T00:50:05.985Z,3.80
2018-12-12T00:51:05.931Z,3.70
2018-12-12T00:52:05.950Z,3.60
2018-12-12T00:53:05.932Z,4.00
2018-12-12T00:54:05.895Z,4.00
2018-12-12T00:55:05.884Z,4.00
2018-12-12T00:56:05.882Z,4.60
2018-12-12T00:57:05.890Z,4.50
2018-12-12T00:58:05.867Z,4.20
2018-12-12T00:59:05.874Z,5.00
2018-12-12T01:00:05.889Z,4.30
2018-12-12T01:01:05.854Z,4.70
2018-12-12T01:02:05.817Z,4.70
2018-12-12T01:03:05.842Z,4.40
2018-12-12T01:04:05.774Z,5.00
2018-12-12T01:05:05.791Z,4.90
2018-12-12T01:06:05.761Z,5.10
2018-12-12T01:07:05.767Z,4.70
2018-12-12T01:08:05.755Z,4.90
2018-12-12T01:09:05.780Z,4.50
2018-12-12T01:10:05.732Z,4.60
2018-12-12T01:11:05.731Z,4.30
2018-12-12T01:12:05.707Z,4.30
2018-12-12T01:13:05.707Z,4.20
2018-12-12T01:14:05.713Z,4.70
2018-12-12T01:15:05.690Z,4.30
2018-12-12T01:16:05.674Z,4.20
2018-12-12T01:17:05.705Z,4.50
2018-12-12T01:18:05.669Z,4.10
2018-12-12T01:19:05.655Z,4.40
2018-12-12T01:20:05.666Z,4.00
2018-12-12T01:21:05.635Z,4.10
2018-12-12T01:22:05.635Z,4.20
2018-12-12T01:23:05.642Z,4.20
2018-12-12T01:24:05.576Z,4.20
2018-12-12T01:25:05.647Z,4.00
2018-12-12T01:26:05.584Z,4.20
2018-12-12T01:27:05.564Z,4.30
2018-12-12T01:28:05.560Z,4.20
2018-12-12T01:29:05.596Z,4.00
2018-12-12T01:30:05.567Z,4.40
2018-12-12T01:31:05.538Z,4.50
2018-12-12T01:32:05.534Z,4.20
2018-12-12T01:33:05.548Z,4.40
2018-12-12T01:34:05.506Z,4.30
2018-12-12T01:35:05.489Z,4.20
2018-12-12T01:36:05.526Z,4.20
2018-12-12T01:37:05.537Z,4.20
2018-12-12T01:38:05.457Z,4.00
2018-12-12T01:39:05.445Z,4.60
2018-12-12T01:40:05.448Z,4.20
2018-12-12T01:43:33.043Z,4.50
2018-12-12T01:44:32.927Z,4.20
2018-12-12T01:45:32.892Z,4.60
2018-12-12T01:46:32.865Z,4.30
2018-12-12T01:47:32.875Z,4.50
2018-12-12T01:48:32.863Z,4.20
2018-12-12T01:49:32.837Z,4.20
2018-12-12T01:50:32.844Z,4.30
2018-12-12T01:51:32.903Z,3.90
2018-12-12T01:52:43.276Z,4.20
2018-12-12T01:53:33.179Z,4.20
2018-12-12T01:54:32.800Z,4.30
2018-12-12T01:55:32.778Z,4.20
2018-12-12T01:56:32.754Z,4.20
2018-12-12T01:57:32.775Z,4.10
2018-12-12T01:58:32.748Z,4.40
2018-12-12T01:59:32.740Z,4.20
2018-12-12T02:00:32.733Z,4.60
2018-12-12T02:01:32.719Z,4.60
2018-12-12T02:02:32.717Z,4.60
2018-12-12T02:03:32.715Z,5.10
2018-12-12T02:04:32.681Z,4.50
2018-12-12T02:05:32.680Z,5.10
2018-12-12T02:06:32.689Z,4.50
2018-12-12T02:07:32.648Z,4.30
2018-12-12T02:08:32.658Z,4.40
2018-12-12T02:09:32.622Z,4.50
2018-12-12T02:10:32.627Z,4.50
2018-12-12T02:11:32.617Z,4.30
2018-12-12T02:12:32.596Z,4.50
2018-12-12T02:13:32.599Z,4.70
2018-12-12T02:14:32.574Z,4.50
2018-12-12T02:15:32.574Z,4.70
2018-12-12T02:16:32.562Z,4.20
2018-12-12T02:17:32.541Z,4.40
2018-12-12T02:18:32.558Z,4.40
2018-12-12T02:19:32.528Z,4.20
2018-12-12T02:20:32.515Z,4.20
2018-12-12T02:21:32.535Z,4.30
2018-12-12T02:22:32.497Z,4.30
2018-12-12T02:23:32.534Z,4.00
2018-12-12T02:24:32.470Z,4.20
2018-12-12T02:25:32.471Z,4.00
2018-12-12T02:26:32.457Z,4.30
2018-12-12T02:27:32.431Z,4.40
2018-12-12T02:28:32.422Z,4.60
2018-12-12T02:29:32.447Z,4.20
2018-12-12T02:30:32.409Z,4.30
2018-12-12T02:31:32.409Z,4.20
2018-12-12T02:32:32.381Z,4.60
2018-12-12T02:33:32.372Z,4.20
2018-12-12T02:34:32.457Z,4.40
2018-12-12T02:35:32.370Z,4.30
2018-12-12T02:36:32.352Z,4.10
2018-12-12T02:37:32.418Z,4.20
2018-12-12T02:38:32.331Z,4.00
2018-12-12T02:39:32.333Z,4.30
2018-12-12T02:40:32.320Z,4.50
2018-12-12T02:41:32.314Z,4.30
2018-12-12T02:42:32.294Z,4.40
2018-12-12T02:43:32.305Z,4.00
2018-12-12T02:44:32.278Z,4.20
2018-12-12T02:45:32.250Z,4.30
2018-12-12T02:46:32.262Z,4.30
2018-12-12T02:47:32.224Z,4.60
2018-12-12T02:48:32.245Z,4.20
2018-12-12T02:49:32.435Z,4.10
2018-12-12T02:50:32.199Z,4.40
2018-12-12T02:51:32.200Z,4.20
2018-12-12T02:52:32.229Z,4.20
2018-12-12T02:53:32.161Z,4.60
2018-12-12T02:54:32.168Z,4.60
2018-12-12T02:55:32.173Z,4.80
2018-12-12T02:56:32.138Z,4.50
2018-12-12T02:57:32.152Z,4.30
2018-12-12T02:58:32.133Z,4.10
2018-12-12T02:59:32.194Z,4.60
2018-12-12T03:00:32.106Z,4.50
2018-12-12T03:01:32.079Z,4.30
2018-12-12T03:02:32.111Z,4.40
2018-12-12T03:03:32.085Z,4.70
2018-12-12T03:04:32.063Z,4.40
2018-12-12T03:05:32.067Z,4.40
2018-12-12T03:06:32.046Z,4.70
2018-12-12T03:07:32.053Z,4.40
2018-12-12T03:08:32.040Z,4.60
2018-12-12T03:09:32.043Z,4.40
2018-12-12T03:10:31.984Z,4.40
2018-12-12T03:11:32.002Z,4.40
2018-12-12T03:12:31.998Z,4.40
2018-12-12T03:13:31.950Z,4.20
2018-12-12T03:14:31.955Z,4.30
2018-12-12T03:15:31.938Z,4.20
2018-12-12T03:16:31.950Z,4.30
2018-12-12T03:17:31.961Z,4.50
2018-12-12T03:18:31.983Z,4.30
2018-12-12T03:19:31.939Z,4.40
2018-12-12T03:20:31.900Z,4.40
2018-12-12T03:21:31.894Z,4.40
2018-12-12T03:22:31.908Z,4.60
2018-12-12T03:23:31.872Z,4.70
2018-12-12T03:24:31.887Z,4.20
2018-12-12T03:25:31.846Z,4.30
2018-12-12T03:26:31.829Z,4.30
2018-12-12T03:27:31.815Z,4.30
2018-12-12T03:28:31.846Z,4.30
2018-12-12T03:29:31.812Z,4.40
2018-12-12T03:30:31.815Z,4.30
2018-12-12T03:31:31.788Z,4.10
2018-12-12T03:32:31.754Z,4.20
2018-12-12T03:33:31.758Z,4.40
2018-12-12T03:34:31.766Z,4.30
2018-12-12T03:35:33.310Z,4.40
2018-12-12T03:36:31.750Z,4.20
2018-12-12T03:37:31.740Z,4.30
2018-12-12T03:38:31.715Z,4.20
2018-12-12T03:39:31.703Z,4.40
2018-12-12T03:40:31.687Z,4.60
2018-12-12T03:41:31.703Z,4.50
2018-12-12T03:42:31.675Z,4.50
2018-12-12T03:43:31.658Z,4.60
2018-12-12T03:44:31.647Z,4.60
2018-12-12T03:45:31.661Z,4.80
2018-12-12T03:46:31.630Z,4.50
2018-12-12T03:47:31.639Z,4.70
2018-12-12T03:48:31.632Z,4.50
2018-12-12T03:49:31.602Z,4.90
2018-12-12T03:50:31.566Z,4.80
2018-12-12T03:51:40.337Z,5.00
2018-12-12T03:52:40.854Z,4.50
2018-12-12T03:53:31.534Z,4.50
2018-12-12T03:54:31.570Z,4.60
2018-12-12T03:55:31.522Z,4.90
2018-12-12T03:56:31.509Z,5.10
2018-12-12T03:57:31.510Z,5.00
2018-12-12T03:58:31.501Z,5.00
2018-12-12T03:59:39.103Z,5.00
2018-12-12T04:00:31.496Z,5.10
2018-12-12T04:01:31.476Z,5.10
2018-12-12T04:02:31.462Z,5.50
2018-12-12T04:03:31.442Z,5.20
2018-12-12T04:04:31.440Z,5.70
2018-12-12T04:05:31.450Z,5.10
2018-12-12T04:06:31.415Z,5.10
2018-12-12T04:07:31.423Z,5.00
2018-12-12T04:08:31.412Z,5.30
2018-12-12T04:09:31.385Z,5.30
2018-12-12T04:10:31.381Z,5.20
2018-12-12T04:11:31.386Z,5.30
2018-12-12T04:12:31.381Z,5.30
2018-12-12T04:13:31.341Z,5.60
2018-12-12T04:14:31.342Z,5.90
2018-12-12T04:15:32.312Z,5.50
2018-12-12T04:16:31.303Z,5.50
2018-12-12T04:17:31.370Z,5.90
2018-12-12T04:18:31.293Z,5.90
2018-12-12T04:19:31.270Z,5.90
2018-12-12T04:20:31.282Z,6.10
2018-12-12T04:21:31.291Z,6.40
2018-12-12T04:22:31.256Z,6.20
2018-12-12T04:23:31.248Z,6.60
2018-12-12T04:24:31.291Z,6.70
2018-12-12T04:25:31.229Z,6.20
2018-12-12T04:26:31.222Z,6.70
2018-12-12T04:27:31.198Z,6.40
2018-12-12T04:28:31.199Z,6.40
2018-12-12T04:29:31.195Z,6.50
2018-12-12T04:30:31.176Z,6.70
2018-12-12T04:31:31.169Z,6.60
2018-12-12T04:32:31.160Z,6.60
2018-12-12T04:33:31.184Z,6.40
2018-12-12T04:34:31.138Z,7.20
2018-12-12T04:35:31.144Z,6.40
2018-12-12T04:36:31.097Z,7.00
2018-12-12T04:37:31.095Z,6.60
2018-12-12T04:38:31.145Z,6.70
2018-12-12T04:39:31.070Z,6.70
2018-12-12T04:40:31.061Z,6.80
2018-12-12T04:41:31.085Z,7.10
2018-12-12T04:42:31.229Z,7.00
2018-12-12T04:43:31.033Z,6.60
2018-12-12T04:44:31.020Z,7.20
2018-12-12T04:45:31.036Z,7.50
2018-12-12T04:46:31.013Z,7.30
2018-12-12T04:47:31.011Z,7.60
2018-12-12T04:48:31.037Z,7.30
2018-12-12T04:49:30.973Z,7.40
2018-12-12T04:50:30.959Z,6.90
2018-12-12T04:51:30.954Z,7.50
2018-12-12T04:52:30.954Z,7.40
2018-12-12T04:53:30.964Z,7.60
2018-12-12T04:54:30.931Z,7.00
2018-12-12T04:55:30.917Z,7.40
2018-12-12T04:56:30.899Z,7.50
2018-12-12T04:57:30.889Z,7.10
2018-12-12T04:58:30.883Z,7.60
2018-12-12T04:59:30.983Z,7.00
2018-12-12T05:00:30.901Z,7.90
2018-12-12T05:01:30.867Z,7.40
2018-12-12T05:02:30.857Z,7.70
2018-12-12T05:03:30.834Z,7.90
2018-12-12T05:04:30.817Z,7.60
2018-12-12T05:05:31.173Z,7.60
2018-12-12T05:06:30.791Z,7.60
2018-12-12T05:07:30.803Z,7.80
2018-12-12T05:08:30.792Z,7.20
2018-12-12T05:09:30.814Z,7.60
2018-12-12T05:10:30.767Z,7.50
2018-12-12T05:11:30.784Z,7.80
2018-12-12T05:12:30.744Z,7.60
2018-12-12T05:13:30.758Z,7.70
2018-12-12T05:14:30.777Z,7.50
2018-12-12T05:15:30.705Z,7.60
2018-12-12T05:16:30.711Z,7.60
2018-12-12T05:17:30.667Z,7.60
2018-12-12T05:18:30.681Z,7.50
2018-12-12T05:19:30.722Z,8.00
2018-12-12T05:20:30.685Z,7.40
2018-12-12T05:21:30.673Z,8.10
2018-12-12T05:22:30.622Z,7.90
2018-12-12T05:23:30.648Z,8.30
2018-12-12T05:24:30.607Z,8.80
2018-12-12T05:25:30.602Z,8.80
2018-12-12T05:26:30.644Z,8.20
2018-12-12T05:27:30.585Z,8.40
2018-12-12T05:28:30.614Z,8.70
2018-12-12T05:29:30.579Z,10.10
2018-12-12T05:30:30.556Z,9.90
2018-12-12T05:31:30.581Z,9.10
2018-12-12T05:32:30.581Z,10.30
2018-12-12T05:33:30.524Z,9.70
2018-12-12T05:34:30.527Z,9.90
2018-12-12T05:35:30.492Z,9.90
2018-12-12T05:36:30.515Z,10.20
2018-12-12T05:37:30.478Z,10.30
2018-12-12T05:38:30.493Z,10.90
2018-12-12T05:39:30.491Z,10.60
2018-12-12T05:40:30.426Z,10.00
2018-12-12T05:41:30.458Z,10.70
2018-12-12T05:42:30.417Z,10.50
2018-12-12T05:43:30.455Z,11.40
2018-12-12T05:44:30.417Z,11.00
2018-12-12T05:45:33.388Z,11.40
2018-12-12T05:46:30.370Z,11.20
2018-12-12T05:47:30.369Z,11.30
2018-12-12T05:48:30.366Z,11.10
2018-12-12T05:49:30.380Z,10.90
2018-12-12T05:50:30.378Z,11.10
2018-12-12T05:51:30.537Z,11.60
2018-12-12T05:52:30.343Z,10.50
2018-12-12T05:53:30.371Z,10.50
2018-12-12T05:54:30.353Z,9.70
2018-12-12T05:55:31.086Z,9.70
2018-12-12T05:56:30.487Z,9.40
2018-12-12T05:57:30.289Z,8.70
2018-12-12T05:58:30.538Z,8.60
2018-12-12T05:59:30.592Z,8.60
2018-12-12T06:00:30.475Z,9.00
2018-12-12T06:01:30.418Z,8.50
2018-12-12T06:02:30.411Z,8.50
2018-12-12T06:03:30.227Z,9.00
2018-12-12T06:04:30.198Z,8.40
2018-12-12T06:05:30.179Z,8.70
2018-12-12T06:06:30.202Z,8.80
2018-12-12T06:07:30.162Z,9.00
2018-12-12T06:08:30.152Z,8.70
2018-12-12T06:09:30.161Z,8.70
2018-12-12T06:10:30.139Z,9.40
2018-12-12T06:11:30.172Z,9.00
2018-12-12T06:12:30.125Z,8.80
2018-12-12T06:13:30.118Z,8.70
2018-12-12T06:14:30.095Z,9.10
2018-12-12T06:15:30.138Z,8.70
2018-12-12T06:16:30.117Z,9.10
2018-12-12T06:17:30.075Z,9.80
2018-12-12T06:18:30.117Z,10.50
2018-12-12T06:19:30.052Z,10.10
2018-12-12T06:20:30.071Z,10.00
2018-12-12T06:21:30.046Z,10.70
2018-12-12T06:22:30.033Z,10.20
2018-12-12T06:23:30.010Z,9.70
2018-12-12T06:24:30.002Z,9.70
2018-12-12T06:25:30.005Z,10.30
2018-12-12T06:26:29.970Z,9.80
2018-12-12T06:27:29.975Z,9.50
2018-12-12T06:28:29.984Z,10.50
2018-12-12T06:29:29.930Z,9.80
2018-12-12T06:30:29.926Z,9.90
2018-12-12T06:31:29.940Z,10.10
2018-12-12T06:32:30.007Z,10.20
2018-12-12T06:33:29.921Z,22.30
2018-12-12T06:34:29.885Z,13.10
2018-12-12T06:35:29.867Z,10.40
2018-12-12T06:36:29.873Z,13.80
2018-12-12T06:37:29.862Z,10.60
2018-12-12T06:38:29.878Z,10.40
2018-12-12T06:39:29.914Z,10.40
2018-12-12T06:40:29.821Z,9.50
2018-12-12T06:41:29.852Z,9.60
2018-12-12T06:42:29.828Z,10.00
2018-12-12T06:43:29.811Z,9.40
2018-12-12T06:44:29.820Z,9.20
2018-12-12T06:45:29.786Z,10.20
2018-12-12T06:46:29.797Z,10.10
2018-12-12T06:47:29.772Z,9.50
2018-12-12T06:48:29.747Z,9.80
2018-12-12T06:49:29.870Z,9.60
2018-12-12T06:50:29.802Z,9.50
2018-12-12T06:51:29.722Z,9.20
2018-12-12T06:52:29.691Z,10.20
2018-12-12T06:53:29.695Z,9.60
2018-12-12T06:54:29.691Z,9.90
2018-12-12T06:55:29.719Z,9.70
2018-12-12T06:56:29.663Z,10.00
2018-12-12T06:57:29.681Z,9.20
2018-12-12T06:58:29.646Z,10.10
2018-12-12T06:59:29.640Z,9.70
2018-12-12T07:00:29.624Z,9.90
2018-12-12T07:01:29.656Z,10.40
2018-12-12T07:02:29.601Z,10.10
2018-12-12T07:03:29.630Z,10.20
2018-12-12T07:04:29.605Z,9.70
2018-12-12T07:05:29.611Z,9.90
2018-12-12T07:06:29.660Z,10.00
2018-12-12T07:07:29.543Z,10.00
2018-12-12T07:08:29.563Z,9.40
2018-12-12T07:09:29.551Z,10.00
2018-12-12T07:10:29.518Z,10.60
2018-12-12T07:11:29.530Z,10.30
2018-12-12T07:12:29.506Z,10.10
2018-12-12T07:13:35.556Z,10.00
2018-12-12T07:14:30.479Z,10.10
2018-12-12T07:15:29.480Z,10.20
2018-12-12T07:16:29.459Z,10.20
2018-12-12T07:17:29.456Z,10.10
2018-12-12T07:18:29.435Z,10.20
2018-12-12T07:19:29.439Z,10.70
2018-12-12T07:20:29.410Z,10.70
2018-12-12T07:21:29.394Z,10.90
2018-12-12T07:22:29.430Z,11.10
2018-12-12T07:23:29.368Z,10.70
2018-12-12T07:24:39.968Z,10.60
2018-12-12T07:25:29.403Z,11.20
2018-12-12T07:26:29.363Z,10.70
2018-12-12T07:27:29.363Z,10.70
2018-12-12T07:28:29.333Z,10.90
2018-12-12T07:29:29.342Z,10.80
2018-12-12T07:30:29.356Z,10.80
2018-12-12T07:31:29.320Z,10.40
2018-12-12T07:32:29.289Z,10.60
2018-12-12T07:33:29.303Z,10.30
2018-12-12T07:34:29.286Z,10.10
2018-12-12T07:35:29.355Z,10.50
2018-12-12T07:36:29.275Z,10.50
2018-12-12T07:37:29.244Z,10.40
2018-12-12T07:38:29.269Z,10.80
2018-12-12T07:39:29.214Z,10.50
2018-12-12T07:40:29.225Z,10.40
2018-12-12T07:41:29.191Z,11.20
2018-12-12T07:42:29.185Z,11.60
2018-12-12T07:43:29.184Z,11.10
2018-12-12T07:44:29.195Z,11.20
2018-12-12T07:45:29.159Z,11.00
2018-12-12T07:46:29.151Z,11.20
2018-12-12T07:47:29.150Z,11.20
2018-12-12T07:48:29.181Z,11.00
2018-12-12T07:49:29.148Z,10.90
2018-12-12T07:50:29.135Z,10.80
2018-12-12T07:51:29.102Z,11.20
2018-12-12T07:52:29.112Z,10.70
2018-12-12T07:53:29.071Z,10.30
2018-12-12T07:54:29.117Z,10.70
2018-12-12T07:55:29.066Z,10.70
2018-12-12T07:56:29.031Z,10.60
2018-12-12T07:57:29.043Z,11.00
2018-12-12T07:58:29.122Z,10.70
2018-12-12T07:59:29.008Z,10.70
2018-12-12T08:00:29.065Z,10.70
2018-12-12T08:01:28.982Z,10.60
2018-12-12T08:02:28.996Z,10.60
2018-12-12T08:03:28.952Z,10.50
2018-12-12T08:04:28.979Z,10.50
2018-12-12T08:05:28.935Z,10.80
2018-12-12T08:06:28.998Z,11.30
2018-12-12T08:07:28.961Z,11.50
2018-12-12T08:08:28.919Z,11.40
2018-12-12T08:09:28.901Z,11.20
2018-12-12T08:10:28.919Z,11.70
2018-12-12T08:11:28.918Z,12.10
2018-12-12T08:12:28.881Z,11.70
2018-12-12T08:13:28.867Z,11.40
2018-12-12T08:14:28.894Z,11.60
2018-12-12T08:15:28.836Z,11.30
2018-12-12T08:16:28.903Z,11.60
2018-12-12T08:17:28.839Z,10.90
2018-12-12T08:18:28.812Z,10.90
2018-12-12T08:19:28.806Z,11.10
2018-12-12T08:20:28.788Z,11.30
2018-12-12T08:21:28.892Z,11.20
2018-12-12T08:22:28.773Z,11.10
2018-12-12T08:23:28.757Z,11.10
2018-12-12T08:24:28.756Z,10.90
2018-12-12T08:25:28.750Z,10.40
2018-12-12T08:26:28.725Z,11.10
2018-12-12T08:27:28.729Z,11.20
2018-12-12T08:28:28.751Z,11.90
2018-12-12T08:29:28.704Z,11.30
2018-12-12T08:30:28.713Z,11.70
2018-12-12T08:31:28.712Z,11.50
2018-12-12T08:32:28.718Z,12.10
2018-12-12T08:33:28.656Z,11.20
2018-12-12T08:34:28.632Z,11.30
2018-12-12T08:35:28.664Z,11.50
2018-12-12T08:36:28.651Z,11.40
2018-12-12T08:37:28.625Z,11.90
2018-12-12T08:38:28.604Z,11.40
2018-12-12T08:39:28.657Z,10.70
2018-12-12T08:40:28.586Z,11.00
2018-12-12T08:41:28.575Z,10.80
2018-12-12T08:42:28.573Z,10.80
2018-12-12T08:43:28.591Z,11.10
2018-12-12T08:44:28.573Z,12.00
2018-12-12T08:45:28.854Z,11.50
2018-12-12T08:46:28.522Z,11.70
2018-12-12T08:47:28.529Z,10.70
2018-12-12T08:48:28.506Z,11.00
2018-12-12T08:49:28.505Z,11.10
2018-12-12T08:50:28.477Z,11.50
2018-12-12T08:51:28.476Z,10.60
2018-12-12T08:52:28.451Z,10.90
2018-12-12T08:53:28.442Z,10.80
2018-12-12T08:54:28.616Z,10.80
2018-12-12T08:55:28.455Z,11.00
2018-12-12T08:56:28.431Z,10.40
2018-12-12T08:57:28.431Z,10.40
2018-12-12T08:58:28.402Z,11.30
2018-12-12T08:59:28.376Z,10.50
2018-12-12T09:00:28.392Z,10.60
2018-12-12T09:01:28.431Z,10.50
2018-12-12T09:02:28.358Z,10.30
2018-12-12T09:03:28.325Z,10.90
2018-12-12T09:04:28.341Z,11.20
2018-12-12T09:05:28.326Z,10.40
2018-12-12T09:06:28.330Z,10.60
2018-12-12T09:07:28.341Z,10.90
2018-12-12T09:08:28.316Z,10.60
2018-12-12T09:09:28.307Z,10.60
2018-12-12T09:10:28.284Z,10.60
2018-12-12T09:11:28.267Z,10.60
2018-12-12T09:12:28.257Z,10.60
2018-12-12T09:13:28.648Z,10.80
2018-12-12T09:14:28.232Z,11.00
2018-12-12T09:15:28.230Z,10.40
2018-12-12T09:16:28.222Z,10.60
2018-12-12T09:17:28.199Z,10.30
2018-12-12T09:18:28.197Z,10.10
2018-12-12T09:19:28.203Z,10.00
2018-12-12T09:20:28.149Z,9.90
2018-12-12T09:21:28.148Z,10.60
2018-12-12T09:22:28.138Z,9.80
2018-12-12T09:23:28.258Z,9.80
2018-12-12T09:24:28.123Z,9.80
2018-12-12T09:25:28.135Z,9.20
2018-12-12T09:26:28.097Z,9.50
2018-12-12T09:27:28.110Z,9.10
2018-12-12T09:28:28.081Z,9.20
2018-12-12T09:29:28.095Z,9.10
2018-12-12T09:30:28.083Z,9.40
2018-12-12T09:31:28.055Z,9.30
2018-12-12T09:32:28.054Z,9.00
2018-12-12T09:33:28.027Z,8.80
2018-12-12T09:34:28.020Z,9.10
2018-12-12T09:35:28.034Z,8.30
2018-12-12T09:36:28.018Z,8.70
2018-12-12T09:37:28.002Z,8.70
2018-12-12T09:38:27.969Z,8.80
2018-12-12T09:39:27.955Z,8.80
2018-12-12T09:40:27.967Z,8.90
2018-12-12T09:41:27.965Z,8.50
2018-12-12T09:42:27.946Z,8.00
2018-12-12T09:43:27.956Z,8.20
2018-12-12T09:44:27.929Z,8.50
2018-12-12T09:45:27.912Z,8.40
2018-12-12T09:46:27.942Z,8.50
2018-12-12T09:47:27.895Z,7.80
2018-12-12T09:48:27.869Z,7.40
2018-12-12T09:49:27.864Z,7.70
2018-12-12T09:50:27.859Z,7.60
2018-12-12T09:51:28.468Z,8.00
2018-12-12T09:52:28.449Z,8.00
2018-12-12T09:53:28.107Z,7.90
2018-12-12T09:54:28.854Z,8.10
2018-12-12T09:55:30.447Z,8.00
2018-12-12T09:56:28.503Z,7.90
2018-12-12T09:57:28.463Z,7.60
2018-12-12T09:58:28.628Z,7.60
2018-12-12T09:59:28.475Z,8.00
2018-12-12T10:00:28.426Z,7.40
2018-12-12T10:01:30.435Z,7.20
2018-12-12T10:02:28.975Z,7.40
2018-12-12T10:03:32.773Z,7.50
2018-12-12T10:04:28.500Z,6.80
2018-12-12T10:05:28.919Z,6.70
2018-12-12T10:06:27.714Z,7.10
2018-12-12T10:07:29.562Z,7.10
2018-12-12T10:08:30.436Z,7.10
2018-12-12T10:09:28.520Z,6.90
2018-12-12T10:10:28.856Z,7.00
2018-12-12T10:11:27.710Z,7.00
2018-12-12T10:12:27.668Z,7.00
2018-12-12T10:13:27.644Z,6.50
2018-12-12T10:14:27.655Z,6.80
2018-12-12T10:15:27.590Z,6.50
2018-12-12T10:16:27.686Z,6.40
2018-12-12T10:17:27.573Z,6.20
2018-12-12T10:18:27.560Z,6.80
2018-12-12T10:19:27.585Z,6.30
2018-12-12T10:20:27.528Z,6.10
2018-12-12T10:21:27.531Z,6.20
2018-12-12T10:22:27.552Z,6.50
2018-12-12T10:23:27.516Z,6.20
2018-12-12T10:24:27.529Z,6.20
2018-12-12T10:25:27.535Z,6.10
2018-12-12T10:26:27.471Z,5.90
2018-12-12T10:27:27.488Z,6.00
2018-12-12T10:28:27.470Z,5.90
2018-12-12T10:29:27.454Z,6.00
2018-12-12T10:30:27.491Z,5.70
2018-12-12T10:31:27.421Z,5.80
2018-12-12T10:32:27.417Z,5.70
2018-12-12T10:33:27.415Z,5.40
2018-12-12T10:34:27.397Z,5.80
2018-12-12T10:35:27.403Z,5.30
2018-12-12T10:36:27.427Z,5.80
2018-12-12T10:37:27.375Z,5.50
2018-12-12T10:38:27.359Z,5.70
2018-12-12T10:39:27.339Z,5.70
2018-12-12T10:40:27.332Z,5.60
2018-12-12T10:41:27.336Z,5.60
2018-12-12T10:42:27.355Z,5.80
2018-12-12T10:43:27.417Z,5.70
2018-12-12T10:44:27.297Z,5.60
2018-12-12T10:45:27.300Z,5.20
2018-12-12T10:46:27.311Z,5.30
2018-12-12T10:47:27.324Z,5.20
2018-12-12T10:48:27.263Z,4.90
2018-12-12T10:49:27.285Z,4.90
2018-12-12T10:50:36.463Z,5.70
2018-12-12T10:51:34.784Z,5.50
2018-12-12T10:52:36.512Z,5.50
2018-12-12T10:54:44.607Z,5.30
2018-12-12T10:57:02.097Z,5.00
2018-12-12T10:58:02.063Z,5.50
2018-12-12T10:59:02.075Z,5.70
2018-12-12T11:00:02.068Z,5.30
2018-12-12T11:01:02.055Z,5.50
2018-12-12T11:02:02.023Z,5.10
2018-12-12T11:03:02.039Z,5.10
2018-12-12T11:04:02.012Z,5.60
2018-12-12T11:05:02.019Z,5.10
2018-12-12T11:06:01.977Z,5.00
2018-12-12T11:07:01.988Z,4.70
2018-12-12T11:08:02.002Z,4.70
2018-12-12T11:09:01.981Z,4.80
2018-12-12T11:10:01.950Z,4.80
2018-12-12T11:11:01.944Z,4.50
2018-12-12T11:12:01.933Z,4.50
2018-12-12T11:13:01.940Z,5.10
2018-12-12T11:14:01.954Z,4.70
2018-12-12T11:15:01.912Z,4.60
2018-12-12T11:16:01.923Z,4.50
2018-12-12T11:17:01.887Z,4.60
2018-12-12T11:18:01.870Z,4.50
2018-12-12T11:19:02.052Z,4.40
2018-12-12T11:20:01.882Z,4.60
2018-12-12T11:21:01.831Z,4.40
2018-12-12T11:22:01.840Z,4.30
2018-12-12T11:23:01.827Z,4.70
2018-12-12T11:24:01.825Z,4.70
2018-12-12T11:25:01.813Z,4.40
2018-12-12T11:26:01.866Z,4.40
2018-12-12T11:27:01.768Z,4.80
2018-12-12T11:28:01.805Z,4.80
2018-12-12T11:29:01.779Z,4.60
2018-12-12T11:30:01.741Z,5.00
2018-12-12T11:31:01.749Z,4.90
2018-12-12T11:32:01.744Z,4.90
2018-12-12T11:33:01.695Z,5.10
2018-12-12T11:34:01.692Z,4.80
2018-12-12T11:35:01.802Z,5.10
2018-12-12T11:36:01.721Z,5.10
2018-12-12T11:37:01.688Z,5.30
2018-12-12T11:38:01.678Z,5.90
2018-12-12T11:39:01.625Z,5.60
2018-12-12T11:40:01.632Z,5.60
2018-12-12T11:41:01.660Z,6.00
2018-12-12T11:42:01.646Z,6.10
2018-12-12T11:43:01.608Z,5.90
2018-12-12T11:44:01.595Z,6.10
2018-12-12T11:45:01.611Z,6.60
2018-12-12T11:46:01.723Z,6.40
2018-12-12T11:47:01.566Z,6.50
2018-12-12T11:48:01.544Z,6.20
2018-12-12T11:49:01.535Z,6.30
2018-12-12T11:50:01.528Z,6.00
2018-12-12T11:51:02.399Z,5.70
2018-12-12T11:52:01.575Z,6.60
2018-12-12T11:53:01.501Z,6.40
2018-12-12T11:54:01.491Z,6.60
2018-12-12T11:55:01.482Z,6.50
2018-12-12T11:56:01.463Z,6.80
2018-12-12T11:57:01.444Z,6.20
2018-12-12T11:58:01.505Z,6.40
2018-12-12T11:59:01.434Z,6.80
2018-12-12T12:00:01.432Z,6.80
2018-12-12T12:01:01.427Z,6.30
2018-12-12T12:02:01.400Z,6.70
2018-12-12T12:03:01.393Z,6.80
2018-12-12T12:04:01.434Z,6.70
2018-12-12T12:05:01.352Z,7.00
2018-12-12T12:06:01.382Z,7.10
2018-12-12T12:07:01.363Z,7.40
2018-12-12T12:08:01.373Z,7.20
2018-12-12T12:09:01.315Z,7.10
2018-12-12T12:10:01.344Z,7.40
2018-12-12T12:11:01.340Z,7.20
2018-12-12T12:12:01.301Z,7.20
2018-12-12T12:13:01.287Z,7.40
2018-12-12T12:14:01.283Z,7.40
2018-12-12T12:15:01.255Z,7.00
2018-12-12T12:16:01.242Z,7.50
2018-12-12T12:17:01.255Z,7.10
2018-12-12T12:18:01.247Z,7.50
2018-12-12T12:19:01.225Z,7.30
2018-12-12T12:20:01.213Z,7.30
2018-12-12T12:21:01.217Z,7.00
2018-12-12T12:22:01.201Z,7.00
2018-12-12T12:23:01.172Z,6.90
2018-12-12T12:24:01.185Z,6.90
2018-12-12T12:25:01.151Z,7.40
2018-12-12T12:26:01.133Z,7.40
2018-12-12T12:27:01.146Z,6.50
2018-12-12T12:28:01.186Z,6.80
2018-12-12T12:29:01.132Z,6.80
2018-12-12T12:30:01.107Z,6.90
2018-12-12T12:31:01.090Z,7.30
2018-12-12T12:32:01.085Z,7.10
2018-12-12T12:33:01.065Z,7.60
2018-12-12T12:34:03.371Z,7.40
2018-12-12T12:35:01.058Z,6.80
2018-12-12T12:36:01.084Z,7.10
2018-12-12T12:37:01.015Z,7.20
2018-12-12T12:38:01.060Z,6.90
2018-12-12T12:39:01.110Z,7.10
2018-12-12T12:40:00.996Z,7.10
2018-12-12T12:41:01.002Z,6.80
2018-12-12T12:42:00.986Z,7.00
2018-12-12T12:43:00.984Z,7.30
2018-12-12T12:44:00.997Z,7.30
2018-12-12T12:45:00.965Z,7.20
2018-12-12T12:46:00.918Z,7.20
2018-12-12T12:47:00.899Z,7.20
2018-12-12T12:48:00.925Z,7.00
2018-12-12T12:49:00.923Z,7.30
2018-12-12T12:50:00.952Z,7.20
2018-12-12T12:51:00.881Z,7.40
2018-12-12T12:52:00.859Z,7.30
2018-12-12T12:53:00.875Z,7.50
2018-12-12T12:54:00.847Z,7.50
2018-12-12T12:55:00.838Z,7.70
2018-12-12T12:56:00.896Z,7.90
2018-12-12T12:57:00.817Z,7.70
2018-12-12T12:58:00.780Z,7.60
2018-12-12T12:59:00.787Z,9.50
2018-12-12T13:00:00.792Z,8.70
2018-12-12T13:01:00.763Z,8.40
2018-12-12T13:02:00.799Z,9.80
2018-12-12T13:03:00.749Z,9.20
2018-12-12T13:04:00.733Z,8.20
2018-12-12T13:05:00.760Z,8.80
2018-12-12T13:06:00.719Z,8.00
2018-12-12T13:07:00.732Z,8.30
2018-12-12T13:08:00.746Z,8.20
2018-12-12T13:09:09.993Z,8.00
2018-12-12T13:10:11.677Z,7.30
2018-12-12T13:11:14.848Z,8.30
2018-12-12T13:12:00.751Z,9.30
2018-12-12T13:13:00.657Z,10.20
2018-12-12T13:14:00.652Z,8.90
2018-12-12T13:15:00.618Z,8.90
2018-12-12T13:16:00.587Z,8.50
2018-12-12T13:17:10.036Z,7.60
2018-12-12T13:18:00.642Z,7.70
2018-12-12T13:19:00.705Z,8.00
2018-12-12T13:20:00.571Z,7.70